createdAt,value
2022-08-10T00:00:15.721Z,1.70
2022-08-10T00:03:19.768Z,1.55
2022-08-10T00:06:22.624Z,1.85
2022-08-10T00:09:25.744Z,1.88
2022-08-10T00:12:53.137Z,1.98
2022-08-10T00:15:53.739Z,1.80
2022-08-10T00:18:58.802Z,1.73
2022-08-10T00:22:01.721Z,1.90
2022-08-10T00:25:05.173Z,1.77
2022-08-10T00:28:08.781Z,1.90
2022-08-10T00:31:11.410Z,2.03
2022-08-10T00:34:15.572Z,1.90
2022-08-10T00:37:19.700Z,2.03
2022-08-10T00:40:37.363Z,2.10
2022-08-10T00:43:40.638Z,2.20
2022-08-10T00:46:43.473Z,1.80
2022-08-10T00:49:47.921Z,1.60
2022-08-10T00:52:51.852Z,2.00
2022-08-10T00:57:00.894Z,1.92
2022-08-10T00:59:18.563Z,1.92
2022-08-10T01:02:21.235Z,2.10
2022-08-10T01:05:25.930Z,2.00
2022-08-10T01:08:32.950Z,1.93
2022-08-10T01:12:38.710Z,1.90
2022-08-10T01:15:15.329Z,2.40
2022-08-10T01:18:32.106Z,1.80
2022-08-10T01:21:57.384Z,2.50
2022-08-10T01:25:14.676Z,2.40
2022-08-10T01:28:31.781Z,2.13
2022-08-10T01:31:47.831Z,2.05
2022-08-10T01:34:52.851Z,2.10
2022-08-10T01:38:03.425Z,2.05
2022-08-10T01:41:09.876Z,2.10
2022-08-10T01:44:15.831Z,2.42
2022-08-10T01:47:41.864Z,2.40
2022-08-10T01:50:58.892Z,2.00
2022-08-10T01:54:10.652Z,2.50
2022-08-10T01:57:17.896Z,2.13
2022-08-10T02:00:22.396Z,2.22
2022-08-10T02:03:27.858Z,2.10
2022-08-10T02:06:33.271Z,2.30
2022-08-10T02:09:40.325Z,2.20
2022-08-10T02:12:44.751Z,2.03
2022-08-10T02:16:02.062Z,2.58
2022-08-10T02:19:08.512Z,2.35
2022-08-10T02:22:45.926Z,2.33
2022-08-10T02:25:43.779Z,2.20
2022-08-10T02:28:47.385Z,2.40
2022-08-10T02:31:51.511Z,2.30
2022-08-10T02:34:59.313Z,2.30
2022-08-10T02:38:06.091Z,2.53
2022-08-10T02:45:14.974Z,2.45
2022-08-10T02:45:23.255Z,2.17
2022-08-10T02:48:13.435Z,2.28
2022-08-10T02:52:08.078Z,2.60
2022-08-10T02:54:52.150Z,2.60
2022-08-10T02:58:12.744Z,2.25
2022-08-10T03:01:25.803Z,2.47
2022-08-10T03:04:57.296Z,2.28
2022-08-10T03:08:02.933Z,2.60
2022-08-10T03:11:08.478Z,2.60
2022-08-10T03:14:12.246Z,2.58
2022-08-10T03:17:17.517Z,2.30
2022-08-10T03:20:38.342Z,2.50
2022-08-10T03:23:48.802Z,2.47
2022-08-10T03:26:52.889Z,2.60
2022-08-10T03:30:29.511Z,2.28
2022-08-10T03:33:21.628Z,2.50
2022-08-10T03:36:40.447Z,2.40
2022-08-10T03:39:48.386Z,2.60
2022-08-10T03:42:55.159Z,2.70
2022-08-10T03:46:02.185Z,2.72
2022-08-10T03:49:07.007Z,2.40
2022-08-10T03:52:10.734Z,2.47
2022-08-10T03:56:27.166Z,2.37
2022-08-10T03:58:38.450Z,2.73
2022-08-10T04:02:45.760Z,2.60
2022-08-10T04:05:06.207Z,2.55
2022-08-10T04:08:09.248Z,2.80
2022-08-10T04:11:14.115Z,2.30
2022-08-10T04:14:38.191Z,2.50
2022-08-10T04:17:59.507Z,2.83
2022-08-10T04:21:08.337Z,2.95
2022-08-10T04:24:24.781Z,2.53
2022-08-10T04:27:34.563Z,3.30
2022-08-10T04:30:38.189Z,3.40
2022-08-10T04:33:44.369Z,3.38
2022-08-10T04:36:48.391Z,3.50
2022-08-10T04:39:51.658Z,3.10
2022-08-10T04:43:02.326Z,3.23
2022-08-10T04:46:42.780Z,2.83
2022-08-10T04:49:54.495Z,3.30
2022-08-10T04:52:51.817Z,2.83
2022-08-10T04:55:54.474Z,3.17
2022-08-10T04:58:58.603Z,3.50
2022-08-10T05:02:30.402Z,2.87
2022-08-10T05:05:23.980Z,3.10
2022-08-10T05:08:27.144Z,3.40
2022-08-10T05:11:30.132Z,5.05
2022-08-10T05:14:34.367Z,4.50
2022-08-10T05:17:38.060Z,3.40
2022-08-10T05:20:40.744Z,3.20
2022-08-10T05:23:43.376Z,3.00
2022-08-10T05:27:00.590Z,2.60
2022-08-10T05:30:13.765Z,3.03
2022-08-10T05:33:16.595Z,3.00
2022-08-10T05:36:19.696Z,2.70
2022-08-10T05:39:30.569Z,3.30
2022-08-10T05:42:35.602Z,3.03
2022-08-10T05:46:18.717Z,2.57
2022-08-10T05:49:02.602Z,2.93
2022-08-10T05:52:06.090Z,2.65
2022-08-10T05:55:10.105Z,2.85
2022-08-10T05:58:12.872Z,2.70
2022-08-10T06:01:20.077Z,2.93
2022-08-10T06:04:31.501Z,2.70
2022-08-10T06:07:38.466Z,2.60
2022-08-10T06:12:23.787Z,2.70
2022-08-10T06:14:28.358Z,2.50
2022-08-10T06:17:33.316Z,2.73
2022-08-10T06:20:36.583Z,3.10
2022-08-10T06:23:40.016Z,2.42
2022-08-10T06:26:42.930Z,2.63
2022-08-10T06:29:46.748Z,2.35
2022-08-10T06:32:52.453Z,2.50
2022-08-10T06:35:57.453Z,2.23
2022-08-10T06:39:22.970Z,2.60
2022-08-10T06:42:29.152Z,2.45
2022-08-10T06:45:37.118Z,2.70
2022-08-10T06:48:48.095Z,2.47
2022-08-10T06:51:57.224Z,2.40
2022-08-10T06:55:05.337Z,2.50
2022-08-10T06:58:11.823Z,2.40
2022-08-10T07:01:21.001Z,2.65
2022-08-10T07:04:32.743Z,2.60
2022-08-10T07:07:39.945Z,2.70
2022-08-10T07:10:46.285Z,2.80
2022-08-10T07:14:15.941Z,2.60
2022-08-10T07:17:15.320Z,2.50
2022-08-10T07:20:22.042Z,2.40
2022-08-10T07:23:59.769Z,2.50
2022-08-10T07:26:51.526Z,2.22
2022-08-10T07:29:55.136Z,2.28
2022-08-10T07:32:59.775Z,2.40
2022-08-10T07:36:05.041Z,2.63
2022-08-10T07:39:09.995Z,2.60
2022-08-10T07:42:14.886Z,2.30
2022-08-10T07:45:18.068Z,2.30
2022-08-10T07:48:26.004Z,2.20
2022-08-10T07:51:33.098Z,2.33
2022-08-10T07:54:41.575Z,2.00
2022-08-10T07:57:47.796Z,2.00
2022-08-10T08:00:55.084Z,1.80
2022-08-10T08:04:10.752Z,2.22
2022-08-10T08:07:20.775Z,2.00
2022-08-10T08:10:26.847Z,2.00
2022-08-10T08:13:31.266Z,2.17
2022-08-10T08:16:36.055Z,2.00
2022-08-10T08:19:45.862Z,2.00
2022-08-10T08:24:09.602Z,2.13
2022-08-10T08:26:15.733Z,2.10
2022-08-10T08:29:20.511Z,2.10
2022-08-10T08:32:25.783Z,2.17
2022-08-10T08:35:28.541Z,2.17
2022-08-10T08:38:35.056Z,2.17
2022-08-10T08:41:54.751Z,2.70
2022-08-10T08:45:10.035Z,1.90
2022-08-10T08:48:28.630Z,2.20
2022-08-10T08:52:07.181Z,1.98
2022-08-10T08:56:03.574Z,2.20
2022-08-10T08:59:04.131Z,2.10
2022-08-10T09:02:19.099Z,1.98
2022-08-10T09:05:32.702Z,2.00
2022-08-10T09:09:11.402Z,1.85
2022-08-10T09:12:37.008Z,2.00
2022-08-10T09:15:47.818Z,1.73
2022-08-10T09:18:54.412Z,1.60
2022-08-10T09:22:17.316Z,1.73
2022-08-10T09:25:24.515Z,1.60
2022-08-10T09:28:37.239Z,1.20
2022-08-10T09:35:39.226Z,1.40
2022-08-10T09:38:49.794Z,1.10
2022-08-10T09:42:02.257Z,0.80
2022-08-10T09:45:13.586Z,1.30
2022-08-10T09:48:27.055Z,1.10
2022-08-10T09:51:46.422Z,1.30
2022-08-10T09:55:01.594Z,1.38
2022-08-10T09:58:28.355Z,1.20
2022-08-10T10:02:03.919Z,1.20
2022-08-10T10:05:13.703Z,1.40
2022-08-10T10:08:25.535Z,1.30
2022-08-10T10:11:37.649Z,1.10
2022-08-10T10:15:25.200Z,1.33
2022-08-10T10:18:43.710Z,1.40
2022-08-10T10:21:54.729Z,1.37
2022-08-10T10:25:19.816Z,1.20
2022-08-10T10:29:19.743Z,1.13
2022-08-10T10:32:09.539Z,1.30
2022-08-10T10:35:23.596Z,1.20
2022-08-10T10:38:32.323Z,1.27
2022-08-10T10:41:56.243Z,1.20
2022-08-10T10:45:17.331Z,1.20
2022-08-10T10:48:29.007Z,1.60
2022-08-10T10:51:39.050Z,1.40
2022-08-10T10:54:51.708Z,1.10
2022-08-10T10:58:01.330Z,1.10
2022-08-10T11:01:12.280Z,1.17
2022-08-10T11:04:24.306Z,1.40
2022-08-10T11:07:33.894Z,1.20
2022-08-10T11:10:47.502Z,1.10
2022-08-10T11:14:24.408Z,1.65
2022-08-10T11:17:33.285Z,1.20
2022-08-10T11:20:42.234Z,1.20
2022-08-10T11:24:47.263Z,1.13
2022-08-10T11:27:22.530Z,1.20
2022-08-10T11:30:32.336Z,1.10
2022-08-10T11:34:11.285Z,1.20
2022-08-10T11:37:19.700Z,1.17
2022-08-10T11:40:30.946Z,1.30
2022-08-10T11:43:39.061Z,1.10
2022-08-10T11:46:49.826Z,1.30
2022-08-10T11:49:56.823Z,1.20
2022-08-10T11:53:09.824Z,1.30
2022-08-10T11:56:19.621Z,1.37
2022-08-10T11:59:43.474Z,1.30
2022-08-10T12:02:51.646Z,1.45
2022-08-10T12:05:56.729Z,1.30
2022-08-10T12:10:11.564Z,1.33
2022-08-10T12:12:29.721Z,1.47
2022-08-10T12:15:37.614Z,1.60
2022-08-10T12:18:46.184Z,1.15
2022-08-10T12:21:55.463Z,1.40
2022-08-10T12:25:01.486Z,1.40
2022-08-10T12:28:12.141Z,1.37
2022-08-10T12:31:17.625Z,1.40
2022-08-10T12:34:30.448Z,1.30
2022-08-10T12:37:39.910Z,1.40
2022-08-10T12:40:48.450Z,1.25
2022-08-10T12:44:07.187Z,1.40
2022-08-10T12:47:21.307Z,1.43
2022-08-10T12:50:33.836Z,1.50
2022-08-10T12:53:48.753Z,1.30
2022-08-10T12:56:58.261Z,1.50
2022-08-10T13:00:03.543Z,1.60
2022-08-10T13:03:08.921Z,1.50
2022-08-10T13:06:12.357Z,1.50
2022-08-10T13:09:15.698Z,1.30
2022-08-10T13:12:36.582Z,1.45
2022-08-10T13:15:50.776Z,1.30
2022-08-10T13:18:59.473Z,1.37
2022-08-10T13:22:03.807Z,1.40
2022-08-10T13:25:09.409Z,1.40
2022-08-10T13:28:37.717Z,1.52
2022-08-10T13:32:09.941Z,1.40
2022-08-10T13:35:11.821Z,1.30
2022-08-10T13:38:20.821Z,1.30
2022-08-10T13:41:27.840Z,1.42
2022-08-10T13:44:33.041Z,1.55
2022-08-10T13:47:48.469Z,1.40
2022-08-10T13:50:58.609Z,1.50
2022-08-10T13:54:02.991Z,1.23
2022-08-10T13:57:06.870Z,1.45
2022-08-10T14:00:37.497Z,1.40
2022-08-10T14:03:39.225Z,1.40
2022-08-10T14:06:43.250Z,1.30
2022-08-10T14:09:47.815Z,1.38
2022-08-10T14:12:51.880Z,1.25
2022-08-10T14:15:57.607Z,1.33
2022-08-10T14:19:06.082Z,1.40
2022-08-10T14:22:08.979Z,1.20
2022-08-10T14:25:14.262Z,1.58
2022-08-10T14:28:19.457Z,1.33
2022-08-10T14:31:25.075Z,1.52
2022-08-10T14:36:05.017Z,1.30
2022-08-10T14:37:58.447Z,1.33
2022-08-10T14:41:03.513Z,1.33
2022-08-10T14:44:09.021Z,1.50
2022-08-10T14:47:52.532Z,1.45
2022-08-10T14:50:38.928Z,1.40
2022-08-10T14:54:02.037Z,1.50
2022-08-10T14:57:11.250Z,1.40
2022-08-10T15:00:39.091Z,1.52
2022-08-10T15:04:01.431Z,1.60
2022-08-10T15:07:12.690Z,1.60
2022-08-10T15:10:21.749Z,1.40
2022-08-10T15:13:33.831Z,1.45
2022-08-10T15:16:37.900Z,1.30
2022-08-10T15:20:04.111Z,1.40
2022-08-10T15:23:30.723Z,1.40
2022-08-10T15:26:37.385Z,1.70
2022-08-10T15:29:56.956Z,1.48
2022-08-10T15:33:57.001Z,1.40
2022-08-10T15:37:39.628Z,1.70
2022-08-10T15:40:51.211Z,1.60
2022-08-10T15:43:55.894Z,1.70
2022-08-10T15:47:02.625Z,1.50
2022-08-10T15:50:08.546Z,1.70
2022-08-10T15:53:16.780Z,1.30
2022-08-10T15:56:31.784Z,1.40
2022-08-10T15:59:41.496Z,1.50
2022-08-10T16:02:51.385Z,1.60
2022-08-10T16:06:00.615Z,1.63
2022-08-10T16:10:22.410Z,1.40
2022-08-10T16:12:39.097Z,1.50
2022-08-10T16:15:43.250Z,1.77
2022-08-10T16:18:47.321Z,1.60
2022-08-10T16:21:56.919Z,1.60
2022-08-10T16:25:01.745Z,1.45
2022-08-10T16:28:07.800Z,1.50
2022-08-10T16:31:20.488Z,1.57
2022-08-10T16:34:24.524Z,1.67
2022-08-10T16:37:56.667Z,1.52
2022-08-10T16:40:58.480Z,1.70
2022-08-10T16:44:05.226Z,1.50
2022-08-10T16:47:09.348Z,1.60
2022-08-10T16:50:15.616Z,1.52
2022-08-10T16:53:20.936Z,1.80
2022-08-10T16:56:29.036Z,1.60
2022-08-10T16:59:36.471Z,1.70
2022-08-10T17:02:41.835Z,1.67
2022-08-10T17:06:03.389Z,1.83
2022-08-10T17:09:18.489Z,2.17
2022-08-10T17:12:27.013Z,2.10
2022-08-10T17:15:31.783Z,2.17
2022-08-10T17:18:38.696Z,1.90
2022-08-10T17:21:51.841Z,1.80
2022-08-10T17:25:01.231Z,2.00
2022-08-10T17:28:09.567Z,1.80
2022-08-10T17:31:23.738Z,2.17
2022-08-10T17:34:47.887Z,2.10
2022-08-10T17:37:57.443Z,2.10
2022-08-10T17:41:05.875Z,2.10
2022-08-10T17:44:10.301Z,2.20
2022-08-10T17:47:15.866Z,2.20
2022-08-10T17:50:23.426Z,2.20
2022-08-10T17:53:30.410Z,2.25
2022-08-10T17:56:35.604Z,2.00
2022-08-10T17:59:41.792Z,2.20
2022-08-10T18:02:49.655Z,2.10
2022-08-10T18:05:56.252Z,2.30
2022-08-10T18:09:03.260Z,2.38
2022-08-10T18:12:18.365Z,2.40
2022-08-10T18:15:25.554Z,2.50
2022-08-10T18:18:31.600Z,2.53
2022-08-10T18:21:38.865Z,2.40
2022-08-10T18:24:46.511Z,2.72
2022-08-10T18:28:01.062Z,2.40
2022-08-10T18:31:09.635Z,2.50
2022-08-10T18:34:19.889Z,2.75
2022-08-10T18:37:25.023Z,2.78
2022-08-10T18:40:36.409Z,2.67
2022-08-10T18:44:05.602Z,2.60
2022-08-10T18:47:15.916Z,2.50
2022-08-10T18:50:24.404Z,2.67
2022-08-10T18:53:34.200Z,2.90
2022-08-10T18:56:49.149Z,2.72
2022-08-10T19:00:08.079Z,2.60
2022-08-10T19:03:53.601Z,2.87
2022-08-10T19:07:16.799Z,2.80
2022-08-10T19:10:36.841Z,2.35
2022-08-10T19:13:51.153Z,2.60
2022-08-10T19:17:02.710Z,2.70
2022-08-10T19:20:14.415Z,2.60
2022-08-10T19:23:43.113Z,2.73
2022-08-10T19:26:52.889Z,2.85
2022-08-10T19:30:12.126Z,2.85
2022-08-10T19:33:26.745Z,2.95
2022-08-10T19:36:41.639Z,3.00
2022-08-10T19:39:57.619Z,2.70
2022-08-10T19:43:09.237Z,2.70
2022-08-10T19:46:27.455Z,2.72
2022-08-10T19:49:40.127Z,2.80
2022-08-10T19:52:50.594Z,2.93
2022-08-10T19:56:24.352Z,3.13
2022-08-10T20:00:15.003Z,3.00
2022-08-10T20:03:12.431Z,3.10
2022-08-10T20:06:20.766Z,3.10
2022-08-10T20:09:31.687Z,3.50
2022-08-10T20:12:47.160Z,3.13
2022-08-10T20:15:58.409Z,3.10
2022-08-10T20:19:07.579Z,3.28
2022-08-10T20:22:11.394Z,2.90
2022-08-10T20:25:19.948Z,2.60
2022-08-10T20:28:32.768Z,2.40
2022-08-10T20:31:42.019Z,2.40
2022-08-10T20:34:49.682Z,2.40
2022-08-10T20:38:04.679Z,2.40
2022-08-10T20:41:17.594Z,2.13
2022-08-10T20:44:36.733Z,2.10
2022-08-10T20:47:57.572Z,2.30
2022-08-10T20:51:03.447Z,2.50
2022-08-10T20:54:09.823Z,2.10
2022-08-10T20:57:56.189Z,2.25
2022-08-10T21:01:16.965Z,2.10
2022-08-10T21:04:41.076Z,2.10
2022-08-10T21:08:02.572Z,1.90
2022-08-10T21:11:12.568Z,2.10
2022-08-10T21:14:29.581Z,1.70
2022-08-10T21:17:55.007Z,2.10
2022-08-10T21:21:08.396Z,1.77
2022-08-10T21:24:20.042Z,1.70
2022-08-10T21:27:47.136Z,1.90
2022-08-10T21:31:26.803Z,1.80
2022-08-10T21:35:04.700Z,1.58
2022-08-10T21:38:16.744Z,2.00
2022-08-10T21:41:57.587Z,1.60
2022-08-10T21:45:58.769Z,1.90
2022-08-10T21:49:15.266Z,1.67
2022-08-10T21:52:53.370Z,1.70
2022-08-10T21:56:22.937Z,1.70
2022-08-10T21:59:56.124Z,1.80
2022-08-10T22:03:18.721Z,1.60
2022-08-10T22:06:52.632Z,1.55
2022-08-10T22:10:16.741Z,1.60
2022-08-10T22:13:37.514Z,1.90
2022-08-10T22:17:04.974Z,1.70
2022-08-10T22:20:32.324Z,1.73
2022-08-10T22:24:16.727Z,1.67
2022-08-10T22:27:48.580Z,1.58
2022-08-10T22:31:31.868Z,1.50
2022-08-10T22:35:10.856Z,1.70
2022-08-10T22:38:44.329Z,1.67
2022-08-10T22:42:09.879Z,2.00
2022-08-10T22:45:35.538Z,1.60
2022-08-10T22:49:00.155Z,1.80
2022-08-10T22:52:09.601Z,1.50
2022-08-10T22:55:35.004Z,1.75
2022-08-10T22:58:42.990Z,1.70
2022-08-10T23:02:08.117Z,1.77
2022-08-10T23:05:14.196Z,1.80
2022-08-10T23:08:30.282Z,1.70
2022-08-10T23:11:37.282Z,1.65
2022-08-10T23:14:45.209Z,1.60
2022-08-10T23:18:25.418Z,1.70
2022-08-10T23:22:03.099Z,1.50
2022-08-10T23:25:07.086Z,1.73
2022-08-10T23:28:13.222Z,1.80
2022-08-10T23:31:58.368Z,1.75
2022-08-10T23:36:31.880Z,1.90
2022-08-10T23:38:13.512Z,1.70
2022-08-10T23:41:17.369Z,1.90
2022-08-10T23:44:22.077Z,1.80
2022-08-10T23:47:27.310Z,1.80
2022-08-10T23:50:33.578Z,1.67
2022-08-10T23:53:39.652Z,1.60
2022-08-10T23:56:47.478Z,1.80
2022-08-10T23:59:53.901Z,1.70
